Time;durP1;ratioP1;P1;durP2;ratioP2;P2;SDS_P1;SDS_P2;PMS_P1;PMS_P2;Temp;Humidity;BMP_temperature;BMP_pressure;BME280_temperature;BME280_humidity;BME280_pressure;Samples;Min_cycle;Max_cycle;Signal;HPM_P1;HPM_P2
2023/06/20 00:01:19;;;;;;;7.28;1.77;;;21.30;99.90;;;;;;4248241;27;20058;-57
2023/06/20 00:03:21;;;;;;;6.20;1.48;;;21.30;99.90;;;;;;4229612;28;20039;-57
2023/06/20 00:05:24;;;;;;;4.57;1.90;;;21.20;99.90;;;;;;4248044;27;20078;-57
2023/06/20 00:07:27;;;;;;;6.85;2.17;;;21.10;99.90;;;;;;4247618;27;20126;-58
2023/06/20 00:09:29;;;;;;;6.25;1.70;;;21.10;99.90;;;;;;4247329;27;20458;-57
2023/06/20 00:11:31;;;;;;;6.00;1.70;;;21.10;99.90;;;;;;4247307;27;20051;-57
2023/06/20 00:13:34;;;;;;;4.10;1.58;;;21.10;99.90;;;;;;4247781;27;20488;-57
2023/06/20 00:15:36;;;;;;;4.57;1.63;;;21.10;99.90;;;;;;4247887;27;20458;-56
2023/06/20 00:17:38;;;;;;;7.68;1.80;;;21.10;99.90;;;;;;4247051;27;20039;-57
2023/06/20 00:19:40;;;;;;;6.13;1.52;;;21.10;99.90;;;;;;4247791;27;20050;-56
2023/06/20 00:21:44;;;;;;;8.15;1.90;;;21.10;99.90;;;;;;4247846;27;20099;-56
2023/06/20 00:23:46;;;;;;;6.15;1.88;;;21.00;99.90;;;;;;4247855;27;20125;-58
2023/06/20 00:25:48;;;;;;;5.78;1.92;;;20.90;99.90;;;;;;4247708;27;20043;-57
2023/06/20 00:27:50;;;;;;;7.85;2.38;;;20.90;99.90;;;;;;4246874;27;20039;-57
2023/06/20 00:29:52;;;;;;;4.43;2.20;;;21.00;99.90;;;;;;4247593;27;20038;-58
2023/06/20 00:31:54;;;;;;;6.30;1.92;;;20.90;99.90;;;;;;4247624;27;20404;-57
2023/06/20 00:33:56;;;;;;;10.85;2.25;;;21.00;99.90;;;;;;4247739;27;20074;-57
2023/06/20 00:35:59;;;;;;;5.88;2.40;;;21.00;99.90;;;;;;4247484;27;20039;-58
2023/06/20 00:38:02;;;;;;;5.63;2.00;;;21.00;99.90;;;;;;4246762;27;20049;-57
2023/06/20 00:40:07;;;;;;;7.00;1.90;;;20.90;99.90;;;;;;4247206;27;20043;-57
2023/06/20 00:42:16;;;;;;;;;;;20.90;99.90;;;;;;4229751;28;20658;-57
2023/06/20 00:44:18;;;;;;;7.97;2.30;;;20.90;99.90;;;;;;4247617;27;19919;-57
2023/06/20 00:46:23;;;;;;;6.95;2.45;;;20.80;99.90;;;;;;4247414;28;20054;-58
2023/06/20 00:48:27;;;;;;;6.07;1.95;;;20.80;99.90;;;;;;4246745;28;20047;-61
2023/06/20 00:50:30;;;;;;;15.48;2.70;;;20.90;99.90;;;;;;4252572;27;20047;-57
2023/06/20 00:52:32;;;;;;;10.27;2.50;;;20.80;99.90;;;;;;4235021;27;20043;-57
2023/06/20 00:54:36;;;;;;;12.73;2.60;;;20.80;99.90;;;;;;4253105;27;20122;-57
2023/06/20 00:56:38;;;;;;;7.20;2.25;;;20.70;99.90;;;;;;4253264;27;20059;-57
2023/06/20 00:58:40;;;;;;;8.07;2.35;;;20.80;99.90;;;;;;4252182;27;20073;-57
2023/06/20 01:00:44;;;;;;;9.70;2.53;;;20.80;99.90;;;;;;4253061;27;20047;-57
2023/06/20 01:02:46;;;;;;;10.02;2.78;;;20.80;99.90;;;;;;4253353;27;20469;-57
2023/06/20 01:04:49;;;;;;;13.18;3.25;;;20.80;99.90;;;;;;4252962;27;20126;-57
2023/06/20 01:06:59;;;;;;;7.07;2.40;;;20.80;99.90;;;;;;4253213;27;20065;-56
2023/06/20 01:09:08;;;;;;;8.90;2.70;;;20.80;99.90;;;;;;4233335;28;20040;-57
2023/06/20 01:11:23;;;;;;;8.60;2.67;;;20.80;99.90;;;;;;4234477;28;20044;-57
2023/06/20 01:13:32;;;;;;;6.70;2.22;;;20.70;99.90;;;;;;4234702;28;20055;-57
2023/06/20 01:15:40;;;;;;;13.02;2.47;;;20.70;99.90;;;;;;4234632;27;20046;-57
2023/06/20 01:17:48;;;;;;;12.77;2.35;;;20.80;99.90;;;;;;4252674;27;20126;-57
2023/06/20 01:20:12;;;;;;;3.70;2.40;;;20.80;99.90;;;;;;4252816;27;20047;-57
2023/06/20 01:22:41;;;;;;;14.20;2.60;;;20.80;99.90;;;;;;4252977;27;20453;-58
2023/06/20 01:24:51;;;;;;;7.38;2.75;;;20.80;99.90;;;;;;4247410;27;20051;-57
2023/06/20 01:27:00;;;;;;;6.72;2.63;;;20.80;99.90;;;;;;4252943;27;20046;-57
2023/06/20 01:29:12;;;;;;;8.30;2.50;;;20.80;99.90;;;;;;4251702;27;20043;-57
2023/06/20 01:31:17;;;;;;;6.57;2.33;;;20.80;99.90;;;;;;4253050;27;20564;-59
2023/06/20 01:33:26;;;;;;;7.10;2.13;;;20.70;99.90;;;;;;4253571;27;20524;-63
2023/06/20 01:35:32;;;;;;;8.68;2.25;;;20.80;99.90;;;;;;4253812;27;20054;-60
2023/06/20 01:37:40;;;;;;;5.50;2.58;;;20.80;99.90;;;;;;4253236;27;20047;-58
2023/06/20 01:39:47;;;;;;;8.85;2.25;;;20.80;99.90;;;;;;4252456;27;20134;-57
2023/06/20 01:41:51;;;;;;;4.97;2.42;;;20.80;99.90;;;;;;4252898;27;20082;-57
2023/06/20 01:43:56;;;;;;;7.63;3.22;;;20.80;99.90;;;;;;4252856;27;20071;-57
2023/06/20 01:46:01;;;;;;;9.40;2.88;;;20.80;99.90;;;;;;4252803;27;20118;-57
2023/06/20 01:48:06;;;;;;;9.10;2.22;;;20.80;99.90;;;;;;4252112;27;20450;-57
2023/06/20 01:50:11;;;;;;;9.20;2.72;;;20.80;99.90;;;;;;4252540;27;20401;-60
2023/06/20 01:52:15;;;;;;;8.65;3.10;;;20.70;99.90;;;;;;4252627;27;20058;-57
2023/06/20 01:54:18;;;;;;;5.40;2.75;;;20.70;99.90;;;;;;4252946;27;20063;-57
2023/06/20 01:56:23;;;;;;;8.18;2.80;;;20.70;99.90;;;;;;4252305;27;20047;-56
2023/06/20 01:58:25;;;;;;;7.80;3.35;;;20.70;99.90;;;;;;4251917;27;20039;-58
2023/06/20 02:00:29;;;;;;;11.85;3.42;;;20.70;99.90;;;;;;4234009;28;20047;-58
2023/06/20 02:02:31;;;;;;;7.57;3.20;;;20.60;99.90;;;;;;4249709;27;20051;-56
2023/06/20 02:04:34;;;;;;;7.47;2.70;;;20.70;99.90;;;;;;4231488;28;20054;-56
2023/06/20 02:06:38;;;;;;;10.60;3.28;;;20.60;99.90;;;;;;4250929;27;20062;-62
2023/06/20 02:08:42;;;;;;;7.47;3.05;;;20.70;99.90;;;;;;4249469;27;20484;-57
2023/06/20 02:10:44;;;;;;;11.13;3.15;;;20.70;99.90;;;;;;4249853;27;20508;-56
2023/06/20 02:12:49;;;;;;;6.15;2.90;;;20.60;99.90;;;;;;4250077;27;20071;-58
2023/06/20 02:14:52;;;;;;;9.95;2.97;;;20.60;99.90;;;;;;4249648;27;20053;-57
2023/06/20 02:16:56;;;;;;;10.25;2.97;;;20.70;99.90;;;;;;4249820;27;20126;-57
2023/06/20 02:18:58;;;;;;;7.40;3.20;;;20.70;99.90;;;;;;4248688;27;20098;-57
2023/06/20 02:21:09;;;;;;;8.50;3.67;;;20.60;99.90;;;;;;4249453;27;20047;-57
2023/06/20 02:23:11;;;;;;;7.25;3.15;;;20.60;99.90;;;;;;4249734;27;20581;-57
2023/06/20 02:25:19;;;;;;;16.52;4.00;;;20.60;99.90;;;;;;4249489;27;20043;-57
2023/06/20 02:27:22;;;;;;;9.10;3.25;;;20.70;99.90;;;;;;4240505;27;20078;-57
2023/06/20 02:29:28;;;;;;;11.70;3.58;;;20.70;99.90;;;;;;4265736;27;20047;-57
2023/06/20 02:31:33;;;;;;;9.32;3.30;;;20.70;99.90;;;;;;4266655;27;20050;-57
2023/06/20 02:33:37;;;;;;;7.07;2.92;;;20.70;99.90;;;;;;4266766;27;20042;-57
2023/06/20 02:35:42;;;;;;;10.00;3.70;;;20.70;99.90;;;;;;4266211;27;20050;-58
2023/06/20 02:37:45;;;;;;;12.55;3.35;;;20.70;99.90;;;;;;4266565;27;20137;-60
2023/06/20 02:39:47;;;;;;;12.25;4.05;;;20.70;99.90;;;;;;4265421;27;20132;-57
2023/06/20 02:41:49;;;;;;;8.68;3.83;;;20.70;99.90;;;;;;4266454;27;20050;-57
2023/06/20 02:43:51;;;;;;;12.02;3.63;;;20.60;99.90;;;;;;4266708;27;20051;-57
2023/06/20 02:46:04;;;;;;;9.07;3.65;;;20.60;99.90;;;;;;4266416;27;20050;-58
2023/06/20 02:48:25;;;;;;;11.48;4.00;;;20.60;99.90;;;;;;4265948;27;20533;-57
2023/06/20 02:50:40;;;;;;;8.13;3.58;;;20.60;99.90;;;;;;4265992;27;20114;-57
2023/06/20 02:52:50;;;;;;;11.32;3.40;;;20.60;99.90;;;;;;4266251;27;20084;-57
2023/06/20 02:55:00;;;;;;;7.07;3.33;;;20.60;99.90;;;;;;4266244;27;20568;-58
2023/06/20 02:57:08;;;;;;;9.63;3.38;;;20.70;99.90;;;;;;4266347;27;20043;-57
2023/06/20 02:59:12;;;;;;;12.48;3.45;;;20.60;99.90;;;;;;4264912;27;20038;-57
2023/06/20 03:01:23;;;;;;;8.15;3.90;;;20.60;99.90;;;;;;4266169;27;20048;-58
2023/06/20 03:03:29;;;;;;;6.07;3.20;;;20.60;99.90;;;;;;4247619;27;20039;-57
2023/06/20 03:05:36;;;;;;;11.40;3.45;;;20.60;99.90;;;;;;4265913;27;20046;-57
2023/06/20 03:07:41;;;;;;;5.20;2.80;;;20.60;99.90;;;;;;4266337;27;20067;-57
2023/06/20 03:09:43;;;;;;;8.13;3.20;;;20.60;99.90;;;;;;4265207;27;20126;-57
2023/06/20 03:11:46;;;;;;;12.45;3.90;;;20.60;99.90;;;;;;4266083;27;20049;-57
2023/06/20 03:13:49;;;;;;;13.50;3.88;;;20.60;99.90;;;;;;4246530;27;20047;-57
2023/06/20 03:15:51;;;;;;;8.52;3.22;;;20.60;99.90;;;;;;4247600;27;20047;-58
2023/06/20 03:17:54;;;;;;;9.68;3.17;;;20.50;99.90;;;;;;4265997;27;20050;-60
2023/06/20 03:19:56;;;;;;;12.48;3.80;;;20.60;99.90;;;;;;4264646;27;20123;-57
2023/06/20 03:21:59;;;;;;;17.80;3.65;;;20.50;99.90;;;;;;4265829;27;20100;-57
2023/06/20 03:24:01;;;;;;;11.50;3.45;;;20.50;99.90;;;;;;4265944;27;20038;-57
2023/06/20 03:26:03;;;;;;;10.65;3.90;;;20.60;99.90;;;;;;4265784;27;20047;-57
2023/06/20 03:28:05;;;;;;;8.40;3.10;;;20.50;99.90;;;;;;4249719;27;20039;-57
2023/06/20 03:30:08;;;;;;;15.93;3.25;;;20.60;99.90;;;;;;4248125;27;20118;-58
2023/06/20 03:32:11;;;;;;;11.73;3.47;;;20.60;99.90;;;;;;4248962;27;20450;-57
2023/06/20 03:34:14;;;;;;;6.95;3.55;;;20.50;99.90;;;;;;4248402;27;20044;-57
2023/06/20 03:36:18;;;;;;;19.60;3.40;;;20.60;99.90;;;;;;4248580;27;20126;-57
2023/06/20 03:38:20;;;;;;;8.13;2.90;;;20.60;99.90;;;;;;4247908;27;20043;-57
2023/06/20 03:40:22;;;;;;;10.10;3.20;;;20.60;99.90;;;;;;4248445;27;20050;-57
2023/06/20 03:42:25;;;;;;;6.20;2.95;;;20.60;99.90;;;;;;4248395;27;20095;-58
2023/06/20 03:44:27;;;;;;;10.48;3.95;;;20.60;99.90;;;;;;4248521;27;20047;-57
2023/06/20 03:46:29;;;;;;;13.75;3.58;;;20.60;99.90;;;;;;4248399;27;20047;-57
2023/06/20 03:48:31;;;;;;;11.40;3.10;;;20.60;99.90;;;;;;4246910;27;20043;-57
2023/06/20 03:50:34;;;;;;;8.35;3.25;;;20.60;99.90;;;;;;4248075;27;20396;-58
2023/06/20 03:52:36;;;;;;;13.85;3.28;;;20.60;99.90;;;;;;4248107;27;20394;-57
2023/06/20 03:54:39;;;;;;;13.23;3.78;;;20.50;99.90;;;;;;4248275;27;20503;-59
2023/06/20 03:56:41;;;;;;;8.65;3.63;;;20.50;99.90;;;;;;4247998;27;20112;-58
2023/06/20 03:58:43;;;;;;;10.80;3.65;;;20.50;99.90;;;;;;4247436;27;20047;-58
2023/06/20 04:00:46;;;;;;;5.82;3.03;;;20.50;99.90;;;;;;4247806;27;20096;-58
2023/06/20 04:02:49;;;;;;;14.10;3.60;;;20.50;99.90;;;;;;4229617;28;20437;-57
2023/06/20 04:04:51;;;;;;;14.27;3.20;;;20.60;99.90;;;;;;4248250;27;20471;-57
2023/06/20 04:06:55;;;;;;;11.00;3.47;;;20.50;99.90;;;;;;4247880;27;20139;-57
2023/06/20 04:08:57;;;;;;;13.38;3.83;;;20.60;99.90;;;;;;4246789;27;20442;-58
2023/06/20 04:10:59;;;;;;;7.47;3.22;;;20.60;99.90;;;;;;4247711;27;20717;-57
2023/06/20 04:13:02;;;;;;;9.05;3.47;;;20.60;99.90;;;;;;4248059;27;20047;-57
2023/06/20 04:15:05;;;;;;;8.95;3.00;;;20.60;99.90;;;;;;4248113;27;20047;-57
2023/06/20 04:17:07;;;;;;;9.68;3.25;;;20.70;99.90;;;;;;4247548;27;20078;-57
2023/06/20 04:19:09;;;;;;;9.38;3.10;;;20.70;99.90;;;;;;4246805;27;20039;-57
2023/06/20 04:21:11;;;;;;;11.70;3.42;;;20.70;99.90;;;;;;4247860;27;20072;-58
2023/06/20 04:23:15;;;;;;;11.32;4.25;;;20.70;99.90;;;;;;4248855;27;20072;-57
2023/06/20 04:25:17;;;;;;;7.88;3.40;;;20.70;99.90;;;;;;4247917;27;20050;-60
2023/06/20 04:27:19;;;;;;;10.68;3.55;;;20.70;99.90;;;;;;4247559;27;20081;-57
2023/06/20 04:29:21;;;;;;;14.05;3.63;;;20.70;99.90;;;;;;4228225;28;20477;-57
2023/06/20 04:31:24;;;;;;;8.93;3.78;;;20.80;99.90;;;;;;4229131;28;20059;-58
2023/06/20 04:33:26;;;;;;;14.48;3.55;;;20.80;99.90;;;;;;4248024;27;20120;-57
2023/06/20 04:35:29;;;;;;;9.07;3.00;;;20.80;99.90;;;;;;4247744;27;20049;-57
2023/06/20 04:37:31;;;;;;;15.50;3.83;;;20.80;99.90;;;;;;4247749;27;20463;-57
2023/06/20 04:39:35;;;;;;;19.60;4.03;;;20.90;99.90;;;;;;4246509;27;20050;-57
2023/06/20 04:41:37;;;;;;;10.55;3.83;;;20.80;99.90;;;;;;4247431;27;20055;-57
2023/06/20 04:43:44;;;;;;;11.32;4.18;;;20.80;99.90;;;;;;4229217;28;20044;-58
2023/06/20 04:45:46;;;;;;;15.63;4.20;;;20.70;99.90;;;;;;4247824;27;20067;-57
2023/06/20 04:47:52;;;;;;;14.43;4.15;;;20.70;99.90;;;;;;4247279;28;20043;-57
2023/06/20 04:49:54;;;;;;;16.15;3.88;;;20.70;99.90;;;;;;4246510;28;20039;-58
2023/06/20 04:51:58;;;;;;;14.07;3.50;;;20.70;99.90;;;;;;4247398;28;20043;-57
2023/06/20 04:54:01;;;;;;;11.93;4.55;;;20.80;99.90;;;;;;4247320;28;20086;-57
2023/06/20 04:56:05;;;;;;;13.63;3.67;;;20.90;99.90;;;;;;4247463;28;20140;-57
2023/06/20 04:58:07;;;;;;;9.75;2.97;;;20.80;99.90;;;;;;4247533;28;20553;-57
2023/06/20 05:00:12;;;;;;;9.32;3.72;;;20.80;99.90;;;;;;4246946;28;20050;-57
2023/06/20 05:02:15;;;;;;;10.40;3.50;;;20.90;99.90;;;;;;4246882;28;20050;-57
2023/06/20 05:04:17;;;;;;;19.55;5.53;;;20.90;99.90;;;;;;4247496;28;20058;-56
2023/06/20 05:06:19;;;;;;;13.20;4.07;;;20.90;99.90;;;;;;4247704;28;20047;-56
2023/06/20 05:08:22;;;;;;;13.48;4.32;;;20.90;99.90;;;;;;4247713;28;20047;-55
2023/06/20 05:10:24;;;;;;;16.15;4.13;;;21.00;99.90;;;;;;4246379;28;20053;-58
2023/06/20 05:12:28;;;;;;;15.27;4.15;;;20.90;99.90;;;;;;4247267;28;20485;-57
2023/06/20 05:14:30;;;;;;;15.52;4.30;;;21.00;99.90;;;;;;4247748;28;20462;-59
2023/06/20 05:16:32;;;;;;;18.52;4.45;;;21.00;99.90;;;;;;4247227;28;20126;-57
2023/06/20 05:18:34;;;;;;;14.80;4.10;;;21.00;99.90;;;;;;4246796;28;20059;-58
2023/06/20 05:20:36;;;;;;;11.93;3.78;;;21.00;99.90;;;;;;4247138;28;20122;-57
2023/06/20 05:22:39;;;;;;;14.32;3.97;;;21.10;99.90;;;;;;4247204;28;20047;-57
2023/06/20 05:24:42;;;;;;;15.63;3.40;;;21.10;99.90;;;;;;4247357;28;20047;-58
2023/06/20 05:26:44;;;;;;;15.38;3.80;;;21.20;99.90;;;;;;4247373;27;20043;-58
2023/06/20 05:28:47;;;;;;;13.43;3.75;;;21.30;99.90;;;;;;4246364;28;20399;-56
2023/06/20 05:30:50;;;;;;;17.90;3.47;;;21.20;99.90;;;;;;4247579;28;20058;-58
2023/06/20 05:32:52;;;;;;;14.75;3.75;;;21.20;99.90;;;;;;4247847;28;20124;-57
2023/06/20 05:34:54;;;;;;;18.83;4.25;;;21.30;99.90;;;;;;4247062;28;20043;-57
2023/06/20 05:36:56;;;;;;;15.65;3.55;;;21.30;99.90;;;;;;4249052;27;20421;-58
2023/06/20 05:38:58;;;;;;;10.10;3.65;;;21.30;99.90;;;;;;4249387;27;20065;-58
2023/06/20 05:41:00;;;;;;;15.10;3.42;;;21.40;99.90;;;;;;4250073;27;20078;-57
2023/06/20 05:43:02;;;;;;;12.63;3.53;;;21.50;99.90;;;;;;4250121;27;20055;-57
2023/06/20 05:45:07;;;;;;;18.73;3.63;;;21.60;99.90;;;;;;4250030;27;20146;-57
2023/06/20 05:47:12;;;;;;;9.77;4.07;;;21.50;99.90;;;;;;4250410;27;20043;-58
2023/06/20 05:49:15;;;;;;;14.45;3.70;;;21.60;99.90;;;;;;4249457;27;20126;-56
2023/06/20 05:51:18;;;;;;;13.25;4.05;;;21.70;99.90;;;;;;4250338;27;20126;-57
2023/06/20 05:53:20;;;;;;;15.98;4.57;;;21.70;99.90;;;;;;4250159;27;20039;-57
2023/06/20 05:55:23;;;;;;;16.38;3.75;;;21.80;99.90;;;;;;4250069;27;20050;-61
2023/06/20 05:57:25;;;;;;;14.52;3.67;;;21.90;99.90;;;;;;4249980;27;20046;-58
2023/06/20 05:59:27;;;;;;;19.88;4.00;;;22.00;99.90;;;;;;4248609;27;20039;-57
2023/06/20 06:01:31;;;;;;;10.27;3.90;;;21.90;99.90;;;;;;4249792;27;20417;-57
2023/06/20 06:03:33;;;;;;;15.63;4.35;;;22.00;99.90;;;;;;4249745;27;20108;-57
2023/06/20 06:05:35;;;;;;;11.77;4.22;;;22.00;99.90;;;;;;4249932;27;20051;-57
2023/06/20 06:07:38;;;;;;;13.35;4.70;;;22.20;99.90;;;;;;4249910;27;20078;-57
2023/06/20 06:09:40;;;;;;;8.15;3.95;;;22.30;99.90;;;;;;4249004;27;20057;-57
2023/06/20 06:11:42;;;;;;;14.98;4.20;;;22.20;99.90;;;;;;4249963;27;20199;-58
2023/06/20 06:13:44;;;;;;;15.98;4.03;;;22.30;99.90;;;;;;4249346;27;20156;-57
2023/06/20 06:15:46;;;;;;;15.65;4.65;;;22.40;99.90;;;;;;4249842;27;20051;-57
2023/06/20 06:18:03;;;;;;;15.30;4.78;;;22.50;99.90;;;;;;4249518;27;20043;-58
2023/06/20 06:20:12;;;;;;;19.17;4.47;;;22.50;99.90;;;;;;4249038;27;20066;-57
2023/06/20 06:22:14;;;;;;;13.70;4.45;;;22.50;99.90;;;;;;4249656;27;20051;-57
2023/06/20 06:24:16;;;;;;;15.50;3.85;;;22.50;99.90;;;;;;4249726;27;20047;-57
2023/06/20 06:26:18;;;;;;;26.60;4.70;;;22.50;99.90;;;;;;4249717;27;20477;-57
2023/06/20 06:28:24;;;;;;;16.10;4.57;;;22.50;99.90;;;;;;4249405;27;20054;-57
2023/06/20 06:30:26;;;;;;;14.68;4.53;;;22.60;99.90;;;;;;4248526;27;20117;-58
2023/06/20 06:32:28;;;;;;;17.13;4.75;;;22.70;99.90;;;;;;4231478;28;20047;-57
2023/06/20 06:34:33;;;;;;;14.18;4.13;;;22.60;99.90;;;;;;4249757;27;20054;-57
2023/06/20 06:36:35;;;;;;;12.15;3.92;;;22.70;99.90;;;;;;4249777;27;20047;-61
2023/06/20 06:38:37;;;;;;;17.08;5.05;;;22.80;99.90;;;;;;4249460;27;20047;-59
2023/06/20 06:40:41;;;;;;;19.35;4.10;;;22.80;99.90;;;;;;4249459;27;20069;-56
2023/06/20 06:42:44;;;;;;;12.27;4.45;;;22.90;99.90;;;;;;4250474;27;20552;-59
2023/06/20 06:44:46;;;;;;;19.05;4.28;;;22.90;99.90;;;;;;4249434;27;20043;-58
2023/06/20 06:46:49;;;;;;;12.93;4.28;;;23.00;99.90;;;;;;4249201;27;20074;-57
2023/06/20 06:48:51;;;;;;;14.48;3.90;;;23.10;99.90;;;;;;4260854;27;20457;-57
2023/06/20 06:50:55;;;;;;;12.90;4.30;;;23.20;99.90;;;;;;4265847;27;20066;-55
2023/06/20 06:52:57;;;;;;;18.90;4.82;;;23.40;99.90;;;;;;4266322;27;20043;-55
2023/06/20 06:55:01;;;;;;;15.63;4.00;;;23.50;99.90;;;;;;4266359;27;20049;-55
2023/06/20 06:57:03;;;;;;;15.43;4.75;;;23.60;99.90;;;;;;4265850;27;20445;-55
2023/06/20 06:59:06;;;;;;;14.27;4.40;;;23.70;99.90;;;;;;4265292;27;20051;-55
2023/06/20 07:01:08;;;;;;;13.32;3.83;;;23.80;99.90;;;;;;4266156;27;20492;-62
2023/06/20 07:03:11;;;;;;;19.52;4.82;;;23.80;99.90;;;;;;4266212;27;20404;-54
2023/06/20 07:05:13;;;;;;;17.42;4.63;;;23.90;99.90;;;;;;4265644;27;20047;-55
2023/06/20 07:07:16;;;;;;;10.75;4.57;;;23.90;99.90;;;;;;4266169;27;20426;-55
2023/06/20 07:09:19;;;;;;;13.23;4.32;;;23.90;99.90;;;;;;4246844;27;20074;-56
2023/06/20 07:11:22;;;;;;;13.20;5.03;;;23.90;99.90;;;;;;4265805;27;20428;-56
2023/06/20 07:13:24;;;;;;;16.58;4.20;;;23.80;99.90;;;;;;4265950;27;20043;-56
2023/06/20 07:15:26;;;;;;;22.55;5.05;;;23.80;99.90;;;;;;4266269;27;20089;-55
2023/06/20 07:17:29;;;;;;;9.48;4.22;;;23.70;99.90;;;;;;4266303;27;20051;-57
2023/06/20 07:19:31;;;;;;;20.30;5.13;;;23.70;99.90;;;;;;4265022;27;20112;-57
2023/06/20 07:21:33;;;;;;;10.90;4.68;;;23.60;99.90;;;;;;4247606;27;20043;-57
2023/06/20 07:23:37;;;;;;;19.35;4.75;;;23.50;99.90;;;;;;4249548;27;20092;-57
2023/06/20 07:25:39;;;;;;;11.60;4.47;;;23.50;99.90;;;;;;4266724;27;20054;-56
2023/06/20 07:27:41;;;;;;;16.60;4.63;;;23.50;99.90;;;;;;4254398;27;20522;-57
2023/06/20 07:29:43;;;;;;;17.80;6.25;;;23.40;99.90;;;;;;4248009;27;20074;-57
2023/06/20 07:31:45;;;;;;;14.73;5.38;;;23.40;99.90;;;;;;4248882;27;20043;-57
2023/06/20 07:33:47;;;;;;;16.13;5.32;;;23.40;99.90;;;;;;4248575;27;20117;-57
2023/06/20 07:35:49;;;;;;;18.80;5.47;;;23.40;99.90;;;;;;4230568;28;20155;-58
2023/06/20 07:37:51;;;;;;;20.95;5.35;;;23.40;99.90;;;;;;4248558;27;20046;-57
2023/06/20 07:39:55;;;;;;;17.65;5.28;;;23.40;99.90;;;;;;4247749;27;20347;-60
2023/06/20 07:41:57;;;;;;;16.45;5.00;;;23.50;99.90;;;;;;4248432;27;20066;-57
2023/06/20 07:43:59;;;;;;;15.02;5.13;;;23.50;99.90;;;;;;4248577;27;20051;-56
2023/06/20 07:46:01;;;;;;;20.75;5.63;;;23.50;99.90;;;;;;4248341;27;20043;-56
2023/06/20 07:48:04;;;;;;;19.55;5.38;;;23.50;99.90;;;;;;4248530;27;20055;-58
2023/06/20 07:50:07;;;;;;;17.58;5.10;;;23.50;99.90;;;;;;4247472;27;20122;-58
2023/06/20 07:52:09;;;;;;;19.92;4.93;;;23.60;99.90;;;;;;4248627;27;20123;-57
2023/06/20 07:54:11;;;;;;;18.77;5.55;;;23.50;99.90;;;;;;4248446;27;20054;-57
2023/06/20 07:56:15;;;;;;;23.98;5.88;;;23.50;99.90;;;;;;4247862;27;20122;-57
2023/06/20 07:58:19;;;;;;;12.85;4.82;;;23.50;99.90;;;;;;4248274;27;20047;-57
2023/06/20 08:00:22;;;;;;;12.90;5.38;;;23.50;99.90;;;;;;4246938;27;20421;-57
2023/06/20 08:02:25;;;;;;;15.57;5.25;;;23.50;99.90;;;;;;4248472;27;20374;-57
2023/06/20 08:04:27;;;;;;;23.50;6.38;;;23.50;99.90;;;;;;4248011;27;20454;-57
2023/06/20 08:06:29;;;;;;;21.10;5.35;;;23.60;99.90;;;;;;4248273;27;20518;-57
2023/06/20 08:08:36;;;;;;;13.02;5.15;;;23.60;99.90;;;;;;4247980;27;20043;-57
2023/06/20 08:10:38;;;;;;;19.95;5.00;;;23.60;99.90;;;;;;4246798;27;20067;-57
2023/06/20 08:12:42;;;;;;;20.95;5.60;;;23.70;99.90;;;;;;4247836;27;20047;-57
2023/06/20 08:14:50;;;;;;;16.65;4.80;;;23.70;99.90;;;;;;4247809;27;20169;-57
2023/06/20 08:16:52;;;;;;;17.83;5.30;;;23.70;99.90;;;;;;4248118;27;20070;-60
2023/06/20 08:18:54;;;;;;;13.02;5.13;;;23.70;99.90;;;;;;4247777;27;20054;-56
2023/06/20 08:20:56;;;;;;;14.05;5.28;;;23.90;99.90;;;;;;4246884;27;20051;-56
2023/06/20 08:22:58;;;;;;;17.17;5.40;;;23.90;99.90;;;;;;4247922;27;20473;-58
2023/06/20 08:25:00;;;;;;;22.10;5.50;;;24.00;99.90;;;;;;4247415;27;20067;-60
2023/06/20 08:27:04;;;;;;;13.15;4.90;;;24.10;99.90;;;;;;4247925;27;20039;-58
2023/06/20 08:29:08;;;;;;;18.02;5.05;;;24.30;99.90;;;;;;4247684;27;20504;-57
2023/06/20 08:31:10;;;;;;;13.15;5.05;;;24.40;99.90;;;;;;4247513;27;20053;-57
2023/06/20 08:33:19;;;;;;;13.77;5.07;;;24.60;99.90;;;;;;4247599;27;20051;-57
2023/06/20 08:35:21;;;;;;;15.00;4.60;;;24.70;99.90;;;;;;4248047;27;20047;-57
2023/06/20 08:37:23;;;;;;;22.02;5.38;;;24.80;99.90;;;;;;4247734;27;20050;-57
2023/06/20 08:39:26;;;;;;;17.00;5.65;;;24.90;99.90;;;;;;4246419;27;20289;-55
2023/06/20 08:41:28;;;;;;;12.20;4.85;;;24.80;99.90;;;;;;4247221;27;20043;-54
2023/06/20 08:43:31;;;;;;;15.82;5.57;;;24.80;99.90;;;;;;4247839;27;20147;-54
2023/06/20 08:45:35;;;;;;;17.40;5.30;;;24.90;99.90;;;;;;4247532;27;20050;-55
2023/06/20 08:47:38;;;;;;;21.90;5.20;;;25.00;99.90;;;;;;4247653;27;20039;-55
2023/06/20 08:49:41;;;;;;;17.30;5.28;;;25.10;99.90;;;;;;4228318;28;20110;-55
2023/06/20 08:51:46;;;;;;;13.77;5.03;;;25.20;99.90;;;;;;4247333;28;20122;-55
2023/06/20 08:53:50;;;;;;;14.93;5.25;;;25.30;99.90;;;;;;4247620;28;20043;-55
2023/06/20 08:55:53;;;;;;;11.27;5.10;;;25.20;99.90;;;;;;4248038;28;20074;-55
2023/06/20 08:57:56;;;;;;;11.55;4.85;;;25.20;99.90;;;;;;4247753;28;20159;-55
2023/06/20 09:00:00;;;;;;;17.23;5.55;;;25.20;99.90;;;;;;4246569;28;20039;-54
2023/06/20 09:02:04;;;;;;;8.33;4.90;;;25.10;99.90;;;;;;4247417;28;20047;-58
2023/06/20 09:04:09;;;;;;;11.48;5.28;;;25.20;99.90;;;;;;4247627;28;20049;-55
2023/06/20 09:06:11;;;;;;;8.88;4.80;;;25.20;99.90;;;;;;4247387;28;20051;-54
2023/06/20 09:08:14;;;;;;;11.73;5.20;;;25.20;99.90;;;;;;4246995;28;20403;-54
2023/06/20 09:10:19;;;;;;;10.18;4.95;;;25.20;99.90;;;;;;4247089;27;20088;-55
2023/06/20 09:12:22;;;;;;;11.57;5.03;;;25.20;99.90;;;;;;4250639;27;20092;-55
2023/06/20 09:14:29;;;;;;;;;;;25.30;99.90;;;;;;4251426;27;20054;-55
2023/06/20 09:16:31;;;;;;;7.70;5.03;;;25.40;99.90;;;;;;4232391;28;20002;-55
2023/06/20 09:18:35;;;;;;;10.38;5.65;;;25.40;99.90;;;;;;4250369;27;20467;-55
2023/06/20 09:20:40;;;;;;;8.98;5.22;;;25.50;99.90;;;;;;4249714;27;20174;-55
2023/06/20 09:22:42;;;;;;;;;;;25.60;99.90;;;;;;4251404;27;20129;-55
2023/06/20 09:24:45;;;;;;;15.65;4.75;;;25.50;99.90;;;;;;4250467;27;19919;-61
2023/06/20 09:26:48;;;;;;;8.13;4.82;;;25.50;99.90;;;;;;4250470;27;20062;-55
2023/06/20 09:28:50;;;;;;;10.80;4.70;;;25.50;99.90;;;;;;4250615;27;20157;-55
2023/06/20 09:30:52;;;;;;;9.63;4.70;;;25.60;99.90;;;;;;4249284;27;20060;-55
2023/06/20 09:32:54;;;;;;;12.32;5.18;;;25.70;99.90;;;;;;4250117;27;20119;-54
2023/06/20 09:35:02;;;;;;;13.88;4.85;;;25.80;99.90;;;;;;4250346;27;20051;-55
2023/06/20 09:37:09;;;;;;;8.50;5.20;;;25.90;99.90;;;;;;4249867;27;20050;-55
2023/06/20 09:39:13;;;;;;;8.98;5.15;;;26.00;99.90;;;;;;4249938;27;20140;-55
2023/06/20 09:41:18;;;;;;;10.32;5.28;;;26.10;99.70;;;;;;4249009;27;20138;-55
2023/06/20 09:43:24;;;;;;;13.30;6.10;;;26.30;99.50;;;;;;4250153;27;20051;-55
2023/06/20 09:45:26;;;;;;;12.73;4.93;;;26.30;98.80;;;;;;4249954;27;20043;-55
2023/06/20 09:47:29;;;;;;;9.23;4.80;;;26.20;99.20;;;;;;4250307;27;20043;-55
2023/06/20 09:49:33;;;;;;;11.65;5.20;;;26.20;99.20;;;;;;4249277;27;20039;-54
2023/06/20 09:51:41;;;;;;;13.63;5.25;;;26.10;99.30;;;;;;4249619;27;20085;-55
2023/06/20 09:53:49;;;;;;;6.38;4.55;;;26.10;99.40;;;;;;4231699;28;20058;-55
2023/06/20 09:55:54;;;;;;;10.35;5.10;;;26.10;99.00;;;;;;4250128;27;20059;-55
2023/06/20 09:57:59;;;;;;;11.18;4.88;;;26.10;99.20;;;;;;4249840;27;20047;-55
2023/06/20 10:00:04;;;;;;;7.78;4.60;;;26.00;99.20;;;;;;4248788;27;20085;-55
2023/06/20 10:02:08;;;;;;;7.65;4.05;;;26.00;99.10;;;;;;4249997;27;20070;-55
2023/06/20 10:04:12;;;;;;;8.60;3.97;;;26.00;98.50;;;;;;4249873;27;20051;-54
2023/06/20 10:06:14;;;;;;;8.00;4.57;;;26.00;98.50;;;;;;4249330;27;20039;-55
2023/06/20 10:08:19;;;;;;;7.50;4.38;;;26.20;98.80;;;;;;4249614;27;20050;-55
2023/06/20 10:10:21;;;;;;;11.02;4.50;;;26.10;98.50;;;;;;4248770;27;20043;-55
2023/06/20 10:12:24;;;;;;;6.90;4.50;;;26.40;98.20;;;;;;4249601;27;20043;-54
2023/06/20 10:14:26;;;;;;;9.15;4.20;;;26.80;98.20;;;;;;4249584;27;20177;-53
2023/06/20 10:16:29;;;;;;;8.25;4.55;;;27.00;97.20;;;;;;4249840;27;20047;-55
2023/06/20 10:18:36;;;;;;;9.25;4.50;;;27.10;97.40;;;;;;4249465;27;20049;-55
2023/06/20 10:20:38;;;;;;;9.63;4.90;;;27.20;97.00;;;;;;4248328;27;20047;-54
2023/06/20 10:22:42;;;;;;;8.27;4.32;;;27.20;97.20;;;;;;4248739;27;20126;-55
2023/06/20 10:24:49;;;;;;;9.77;4.50;;;27.20;97.30;;;;;;4231330;28;20051;-55
2023/06/20 10:26:53;;;;;;;5.60;3.92;;;27.30;96.50;;;;;;4249560;27;20046;-54
2023/06/20 10:28:56;;;;;;;11.48;4.30;;;27.50;96.30;;;;;;4249596;27;20054;-55
2023/06/20 10:31:02;;;;;;;5.97;3.85;;;27.50;96.20;;;;;;4248333;27;20535;-55
2023/06/20 10:33:10;;;;;;;9.15;4.20;;;27.40;95.70;;;;;;4230960;28;20050;-54
2023/06/20 10:35:15;;;;;;;9.20;4.20;;;27.50;95.70;;;;;;4249052;27;20177;-55
2023/06/20 10:37:36;;;;;;;9.48;3.63;;;27.40;94.80;;;;;;4249257;27;20047;-54
2023/06/20 10:39:49;;;;;;;10.27;4.35;;;27.40;94.40;;;;;;4248436;27;20047;-55